Time,TemperatureF,DewpointF,PressureIn,WindDirection,WindDirectionDegrees,WindSpeedMPH,WindSpeedGustMPH,Humidity,HourlyPrecipIn,Conditions,Clouds,dailyrainin,SolarRadiationWatts/m^2,SoftwareType,DateUTC
2013-01-20 00:22:00,57.0,1.0,30.22,North,11,6.0,11.0,10,0.00,,,0.00,0.000000,,2013-01-20 08:22:00,
2013-01-20 01:22:00,56.0,-2.0,30.22,NNE,14,7.0,13.0,9,0.00,,,0.00,0.000000,,2013-01-20 09:22:00,
2013-01-20 02:22:00,55.0,-3.0,30.21,North,11,7.0,12.0,9,0.00,,,0.00,0.000000,,2013-01-20 10:22:00,
2013-01-20 03:22:00,54.0,-1.0,30.20,North,6,5.0,9.0,10,0.00,,,0.00,0.000000,,2013-01-20 11:22:00,
2013-01-20 03:32:00,54.0,-1.0,30.20,North,6,5.0,9.0,10,0.00,,,0.00,0.000000,,2013-01-20 11:32:00,
2013-01-20 04:22:00,53.0,-2.0,30.19,North,355,3.0,9.0,10,0.00,,,-99.99,0.000000,,2013-01-20 12:22:00,
2013-01-20 04:33:00,53.0,-2.0,30.19,North,355,3.0,9.0,10,0.00,,,-99.99,0.000000,,2013-01-20 12:33:00,
2013-01-20 05:23:00,53.0,-2.0,30.19,North,3,5.0,7.0,10,0.00,,,0.00,0.000000,,2013-01-20 13:23:00,
2013-01-20 05:33:00,53.0,-2.0,30.19,North,3,5.0,7.0,10,0.00,,,0.00,0.000000,,2013-01-20 13:33:00,
2013-01-20 06:22:00,54.0,1.0,30.19,North,357,4.0,8.0,11,0.00,,,0.00,0.000000,,2013-01-20 14:22:00,
2013-01-20 07:23:00,54.0,1.0,30.19,NW,323,2.0,7.0,11,0.00,,,0.00,0.000000,,2013-01-20 15:23:00,
2013-01-20 07:42:00,54.0,1.0,30.19,NW,323,2.0,7.0,11,0.00,,,0.00,0.000000,,2013-01-20 15:42:00,
2013-01-20 07:52:00,54.0,1.0,30.19,NW,323,2.0,7.0,11,0.00,,,0.00,0.000000,,2013-01-20 15:52:00,
2013-01-20 08:23:00,59.0,0.0,30.20,NNE,32,4.0,6.0,9,0.00,,,0.00,61.000000,,2013-01-20 16:23:00,
2013-01-20 09:22:00,65.0,2.0,30.21,North,350,3.0,7.0,8,0.00,,,0.00,278.000000,,2013-01-20 17:22:00,
2013-01-20 09:32:00,65.0,2.0,30.21,North,350,3.0,7.0,8,0.00,,,0.00,278.000000,,2013-01-20 17:32:00,
2013-01-20 10:23:00,69.0,5.0,30.22,NNE,25,7.0,7.0,8,0.00,,,0.00,430.000000,,2013-01-20 18:23:00,
2013-01-20 10:33:00,69.0,5.0,30.22,NNE,25,7.0,7.0,8,0.00,,,0.00,430.000000,,2013-01-20 18:33:00,
2013-01-20 10:42:00,69.0,5.0,30.22,NNE,25,7.0,7.0,8,0.00,,,0.00,430.000000,,2013-01-20 18:42:00,
2013-01-20 10:52:00,69.0,5.0,30.22,NNE,25,7.0,7.0,8,0.00,,,0.00,430.000000,,2013-01-20 18:52:00,
2013-01-20 11:12:00,68.0,2.0,30.19,NNE,15,15.0,34.0,7,0.00,,,0.00,607.000000,,2013-01-20 19:12:00,
2013-01-20 11:22:00,68.0,2.0,30.19,NNE,15,15.0,34.0,7,0.00,,,0.00,607.000000,,2013-01-20 19:22:00,
2013-01-20 12:22:00,69.0,2.0,30.16,NNE,15,15.0,36.0,7,0.00,,,0.00,687.000000,,2013-01-20 20:22:00,
2013-01-20 12:33:00,69.0,2.0,30.16,NNE,15,15.0,36.0,7,0.00,,,0.00,687.000000,,2013-01-20 20:33:00,
2013-01-20 13:22:00,70.0,0.0,30.13,NNE,12,18.0,31.0,6,0.00,,,0.00,702.000000,,2013-01-20 21:22:00,
2013-01-20 13:33:00,70.0,0.0,30.13,NNE,12,18.0,31.0,6,0.00,,,0.00,702.000000,,2013-01-20 21:33:00,
2013-01-20 14:22:00,70.0,0.0,30.12,NNE,12,20.0,38.0,6,0.00,,,0.00,648.000000,,2013-01-20 22:22:00,
2013-01-20 15:23:00,68.0,-2.0,30.11,NNE,13,20.0,39.0,6,0.00,,,0.00,530.000000,,2013-01-20 23:23:00,
2013-01-20 16:22:00,68.0,-2.0,30.11,NNE,20,19.0,38.0,6,0.00,,,0.00,358.000000,,2013-01-21 00:22:00,
2013-01-20 17:22:00,66.0,0.0,30.12,NNE,17,12.0,33.0,7,0.00,,,0.00,148.000000,,2013-01-21 01:22:00,
2013-01-20 17:32:00,66.0,0.0,30.12,NNE,17,12.0,33.0,7,0.00,,,0.00,148.000000,,2013-01-21 01:32:00,
2013-01-20 17:43:00,66.0,0.0,30.12,NNE,17,12.0,33.0,7,0.00,,,0.00,148.000000,,2013-01-21 01:43:00,
2013-01-20 17:52:00,66.0,0.0,30.12,NNE,17,12.0,33.0,7,0.00,,,0.00,148.000000,,2013-01-21 01:52:00,
2013-01-20 18:23:00,61.0,-4.0,30.13,North,11,8.0,19.0,7,0.00,,,0.00,5.000000,,2013-01-21 02:23:00,
2013-01-20 19:23:00,61.0,-1.0,30.14,North,9,8.0,14.0,8,0.00,,,0.00,0.000000,,2013-01-21 03:23:00,
2013-01-20 19:43:00,61.0,-1.0,30.14,North,9,8.0,14.0,8,0.00,,,0.00,0.000000,,2013-01-21 03:43:00,
2013-01-20 19:52:00,61.0,-1.0,30.14,North,9,8.0,14.0,8,0.00,,,0.00,0.000000,,2013-01-21 03:52:00,
2013-01-20 20:23:00,59.0,0.0,30.15,North,7,12.0,17.0,9,0.00,,,0.00,0.000000,,2013-01-21 04:23:00,
2013-01-20 20:32:00,59.0,0.0,30.15,North,7,12.0,17.0,9,0.00,,,0.00,0.000000,,2013-01-21 04:32:00,
2013-01-20 20:42:00,59.0,0.0,30.15,North,7,12.0,17.0,9,0.00,,,0.00,0.000000,,2013-01-21 04:42:00,
2013-01-20 20:52:00,59.0,0.0,30.15,North,7,12.0,17.0,9,0.00,,,0.00,0.000000,,2013-01-21 04:52:00,
2013-01-20 22:23:00,58.0,0.0,30.16,North,11,15.0,25.0,9,0.00,,,0.00,0.000000,,2013-01-21 06:23:00,
2013-01-20 22:33:00,58.0,0.0,30.16,North,11,15.0,25.0,9,0.00,,,0.00,0.000000,,2013-01-21 06:33:00,
2013-01-20 23:22:00,53.0,-2.0,30.17,North,1,9.0,23.0,10,0.00,,,0.00,0.000000,,2013-01-21 07:22:00,